Time;durP1;ratioP1;P1;durP2;ratioP2;P2;SDS_P1;SDS_P2;PMS_P1;PMS_P2;Temp;Humidity;BMP_temperature;BMP_pressure;BME280_temperature;BME280_humidity;BME280_pressure;Samples;Min_cycle;Max_cycle;Signal;HPM_P1;HPM_P2
2022/08/08 00:00:10;;;;;;;4.00;1.30;;;;;;;19.06;56.39;99016.28;4345679;33;20096;-71
2022/08/08 00:03:20;;;;;;;1.98;1.08;;;;;;;19.09;56.75;99009.75;4397994;32;20094;-71
2022/08/08 00:06:00;;;;;;;1.35;1.10;;;;;;;19.03;56.81;99010.50;4409303;32;20117;-71
2022/08/08 00:08:48;;;;;;;3.87;1.10;;;;;;;18.97;56.98;99010.25;4408441;32;20151;-71
2022/08/08 00:11:34;;;;;;;4.90;1.00;;;;;;;18.92;57.58;99015.28;4408304;32;20094;-71
2022/08/08 00:14:50;;;;;;;2.58;1.30;;;;;;;18.82;58.20;99017.37;4431319;32;20132;-71
2022/08/08 00:17:49;;;;;;;1.65;1.00;;;;;;;18.85;57.87;99003.78;4417829;32;20143;-71
2022/08/08 00:20:33;;;;;;;4.32;1.00;;;;;;;18.77;58.13;99001.16;4409332;32;20089;-71
2022/08/08 00:23:06;;;;;;;2.17;1.30;;;;;;;18.60;58.42;98990.75;4420744;32;20124;-71
2022/08/08 00:25:40;;;;;;;1.65;0.98;;;;;;;18.52;58.67;98990.03;4465386;32;20576;-71
2022/08/08 00:28:15;;;;;;;4.32;1.20;;;;;;;18.49;58.72;98987.75;4468332;32;20387;-71
2022/08/08 00:31:07;;;;;;;4.15;1.15;;;;;;;18.54;59.10;98980.06;4468468;32;20096;-71
2022/08/08 00:36:57;;;;;;;1.67;1.20;;;;;;;18.68;59.30;98971.25;4474211;32;20091;-71
2022/08/08 00:39:51;;;;;;;4.25;1.30;;;;;;;18.74;58.91;98977.66;4483825;32;20413;-71
2022/08/08 00:42:44;;;;;;;2.85;1.30;;;;;;;18.78;58.65;98978.94;4484005;32;20213;-71
2022/08/08 00:45:40;;;;;;;3.65;1.27;;;;;;;18.92;58.31;98982.59;4485070;31;20137;-71
2022/08/08 00:48:21;;;;;;;2.78;1.35;;;;;;;19.01;58.36;98981.50;4484735;32;20100;-71
2022/08/08 00:51:30;;;;;;;2.80;1.20;;;;;;;19.08;58.34;98978.94;4485072;31;20092;-71
2022/08/08 00:54:26;;;;;;;1.60;1.12;;;;;;;19.17;57.55;98983.09;4484879;31;20149;-71
2022/08/08 00:57:16;;;;;;;3.80;1.30;;;;;;;19.30;57.35;98980.59;4485154;31;20438;-71
2022/08/08 01:00:19;;;;;;;1.40;1.20;;;;;;;19.37;57.26;98970.03;4485121;31;20212;-71
2022/08/08 01:03:26;;;;;;;4.90;1.42;;;;;;;19.39;56.83;98969.84;4484693;31;20112;-71
2022/08/08 01:06:45;;;;;;;1.60;1.08;;;;;;;19.47;57.00;98975.00;4484862;32;20174;-71
2022/08/08 01:09:33;;;;;;;1.70;1.20;;;;;;;19.53;56.89;98971.63;4485081;31;20111;-71
2022/08/08 01:12:55;;;;;;;2.03;1.30;;;;;;;19.56;56.70;98973.91;4485016;31;20133;-71
2022/08/08 01:15:46;;;;;;;2.83;1.43;;;;;;;19.62;56.00;98969.66;4407516;32;20098;-71
2022/08/08 01:18:46;;;;;;;3.42;1.35;;;;;;;19.61;55.83;98973.34;4408317;32;20178;-71
2022/08/08 01:21:39;;;;;;;2.10;1.20;;;;;;;19.62;55.84;98982.94;4408327;32;20124;-71
2022/08/08 01:24:46;;;;;;;4.10;1.33;;;;;;;19.66;55.55;98974.38;4410144;32;20117;-71
2022/08/08 01:27:39;;;;;;;1.70;1.20;;;;;;;19.74;55.41;98976.09;4420112;32;20181;-71
2022/08/08 01:30:34;;;;;;;2.67;1.40;;;;;;;19.77;55.20;98969.56;4420316;32;20609;-71
2022/08/08 01:33:07;;;;;;;2.55;1.33;;;;;;;19.76;55.40;98958.13;4407031;32;20090;-71
2022/08/08 01:36:21;;;;;;;3.70;2.03;;;;;;;19.69;55.75;98963.38;4419925;32;20141;-71
2022/08/08 01:39:00;;;;;;;4.18;1.10;;;;;;;19.68;55.50;98956.44;4404591;32;20591;-71
2022/08/08 01:41:30;;;;;;;1.50;1.17;;;;;;;19.78;54.70;98957.97;4404698;32;20129;-71
2022/08/08 01:44:15;;;;;;;2.47;1.00;;;;;;;19.76;54.87;98950.16;4404884;32;20754;-71
2022/08/08 01:46:51;;;;;;;3.62;1.20;;;;;;;19.79;54.53;98941.00;4404615;32;20608;-71
2022/08/08 01:49:22;;;;;;;1.10;1.00;;;;;;;19.71;54.84;98949.87;4430976;32;20552;-71
2022/08/08 01:52:18;;;;;;;1.65;1.10;;;;;;;19.63;55.11;98945.53;4468881;32;20107;-71
2022/08/08 01:55:12;;;;;;;3.50;1.50;;;;;;;19.58;55.38;98947.94;4468714;32;20109;-71
2022/08/08 01:58:22;;;;;;;3.15;1.20;;;;;;;19.53;55.64;98952.19;4467724;32;20097;-71
2022/08/08 02:01:45;;;;;;;2.55;1.02;;;;;;;19.49;55.96;98951.75;4470156;32;20155;-71
2022/08/08 02:04:57;;;;;;;3.62;1.02;;;;;;;19.44;57.07;98949.66;4470903;32;20426;-71
2022/08/08 02:07:35;;;;;;;3.17;1.15;;;;;;;19.42;58.33;98950.88;4482203;32;20156;-71
2022/08/08 02:10:12;;;;;;;1.77;1.40;;;;;;;19.33;58.20;98961.62;4470573;32;20093;-71
2022/08/08 02:13:05;;;;;;;2.80;1.30;;;;;;;19.23;58.05;98963.75;4470855;32;20114;-71
2022/08/08 02:16:00;;;;;;;2.05;1.40;;;;;;;18.97;58.44;98959.81;4469441;32;20106;-71
2022/08/08 02:18:38;;;;;;;1.50;1.15;;;;;;;18.92;57.55;98967.50;4468935;32;20131;-71
2022/08/08 02:24:19;;;;;;;4.43;1.12;;;;;;;18.85;57.92;98963.09;4469541;32;20104;-71
2022/08/08 02:27:05;;;;;;;5.68;1.65;;;;;;;18.86;57.80;98968.22;4468974;32;20093;-71
2022/08/08 02:29:52;;;;;;;1.42;1.20;;;;;;;18.86;58.06;98975.38;4470516;32;20092;-71
2022/08/08 02:32:31;;;;;;;2.60;1.30;;;;;;;18.86;58.19;98980.69;4469992;32;20100;-71
2022/08/08 02:35:01;;;;;;;1.65;1.10;;;;;;;18.85;58.44;98987.84;4470598;32;20470;-71
2022/08/08 02:38:04;;;;;;;2.08;1.15;;;;;;;18.82;58.52;98985.53;4480646;32;20133;-71
2022/08/08 02:40:38;;;;;;;2.58;1.40;;;;;;;18.88;58.65;98982.16;4484975;32;20101;-71
2022/08/08 02:43:33;;;;;;;1.45;1.02;;;;;;;18.95;58.66;98984.88;4486192;31;20111;-71
2022/08/08 02:47:00;;;;;;;4.43;1.50;;;;;;;18.83;59.17;98978.38;4485888;32;20080;-71
2022/08/08 02:50:01;;;;;;;2.55;1.12;;;;;;;18.80;59.09;98975.09;4486104;31;20101;-71
2022/08/08 02:52:40;;;;;;;1.73;1.20;;;;;;;18.87;59.06;98982.34;4421104;32;20460;-71
2022/08/08 02:55:16;;;;;;;2.83;1.50;;;;;;;18.90;59.40;98979.31;4421572;32;20167;-71
2022/08/08 02:58:39;;;;;;;3.33;1.65;;;;;;;18.93;59.36;98978.94;4421566;32;20140;-71
2022/08/08 03:01:17;;;;;;;2.53;1.60;;;;;;;18.97;59.59;98982.88;4421062;32;20133;-71
2022/08/08 03:03:54;;;;;;;2.35;1.00;;;;;;;18.97;59.86;98989.00;4420861;32;20094;-71
2022/08/08 03:07:01;;;;;;;2.45;1.60;;;;;;;18.98;59.61;98989.81;4421456;32;20132;-71
2022/08/08 03:10:12;;;;;;;2.15;1.40;;;;;;;19.00;59.61;98979.00;4421173;32;20464;-71
2022/08/08 03:13:20;;;;;;;2.90;1.95;;;;;;;19.07;59.75;98986.03;4421195;32;20280;-71
2022/08/08 03:16:27;;;;;;;3.10;1.58;;;;;;;19.10;59.75;98996.28;4421253;32;20106;-71
2022/08/08 03:19:17;;;;;;;2.12;1.30;;;;;;;19.11;60.03;98991.81;4409605;32;20098;-71
2022/08/08 03:21:46;;;;;;;2.12;1.45;;;;;;;19.06;60.04;99000.34;4421283;32;20554;-71
2022/08/08 03:24:26;;;;;;;4.40;1.35;;;;;;;19.03;60.20;98989.25;4421142;32;20121;-71
2022/08/08 03:27:08;;;;;;;2.75;1.42;;;;;;;19.04;60.29;98996.22;4421330;32;20501;-71
2022/08/08 03:29:41;;;;;;;3.13;1.47;;;;;;;19.12;60.17;98993.44;4454116;32;20131;-71
2022/08/08 03:35:09;;;;;;;2.95;1.37;;;;;;;19.20;60.40;98996.00;4485768;32;20136;-71
2022/08/08 03:37:36;;;;;;;3.72;1.80;;;;;;;19.23;60.61;98990.31;4485506;31;20126;-71
2022/08/08 03:40:25;;;;;;;3.08;1.70;;;;;;;19.28;60.61;99000.38;4485826;31;20510;-71
2022/08/08 03:43:00;;;;;;;8.18;2.03;;;;;;;19.29;60.84;99000.19;4485667;31;20644;-71
2022/08/08 03:45:46;;;;;;;2.62;1.60;;;;;;;19.30;61.08;99001.00;4485765;31;20482;-71
2022/08/08 03:48:34;;;;;;;3.28;1.77;;;;;;;19.29;61.32;99000.19;4485671;31;20115;-71
2022/08/08 03:51:22;;;;;;;3.15;1.80;;;;;;;19.26;62.04;98997.09;4485787;31;20499;-71
2022/08/08 03:54:08;;;;;;;2.35;1.50;;;;;;;19.20;62.66;98996.00;4485609;31;20089;-71
2022/08/08 03:56:42;;;;;;;2.50;1.90;;;;;;;19.22;62.79;99001.94;4484285;32;20123;-71
2022/08/08 03:59:12;;;;;;;5.05;1.55;;;;;;;19.24;62.72;98996.44;4485524;31;20085;-71
2022/08/08 04:01:49;;;;;;;4.80;1.70;;;;;;;19.26;62.50;98989.13;4485439;31;20141;-71
2022/08/08 04:04:38;;;;;;;4.55;1.80;;;;;;;19.36;62.26;99002.91;4485453;31;20104;-71
2022/08/08 04:07:07;;;;;;;1.98;1.42;;;;;;;19.39;61.87;99009.69;4485286;31;20148;-71
2022/08/08 04:09:36;;;;;;;1.75;1.50;;;;;;;19.43;62.05;99005.66;4485582;31;20181;-71
2022/08/08 04:12:24;;;;;;;2.87;1.60;;;;;;;19.40;62.01;99003.37;4485308;32;20767;-71
2022/08/08 04:14:52;;;;;;;3.17;1.60;;;;;;;19.38;62.23;99013.34;4485565;31;20427;-71
2022/08/08 04:17:21;;;;;;;1.85;1.30;;;;;;;19.33;62.30;99017.41;4483984;32;20115;-71
2022/08/08 04:20:09;;;;;;;5.87;1.90;;;;;;;19.45;62.22;99015.06;4484522;32;20516;-71
2022/08/08 04:22:37;;;;;;;1.75;1.60;;;;;;;19.56;62.59;99027.06;4484452;31;20092;-71
2022/08/08 04:25:06;;;;;;;4.65;1.70;;;;;;;19.61;63.41;99029.97;4485474;31;20489;-71
2022/08/08 04:27:35;;;;;;;6.57;2.03;;;;;;;19.72;63.56;99030.47;4485125;31;20097;-71
2022/08/08 04:30:23;;;;;;;9.43;2.50;;;;;;;19.83;63.14;99027.31;4485144;31;20081;-71
2022/08/08 04:32:51;;;;;;;2.83;1.85;;;;;;;19.80;63.30;99025.87;4485007;31;20450;-71
2022/08/08 04:35:19;;;;;;;3.92;2.00;;;;;;;19.80;63.94;99038.34;4484605;31;20123;-71
2022/08/08 04:37:50;;;;;;;5.03;2.40;;;;;;;19.95;63.85;99032.97;4485164;31;20178;-71
2022/08/08 04:40:18;;;;;;;3.45;1.87;;;;;;;19.99;64.41;99035.03;4485201;31;20367;-71
2022/08/08 04:42:51;;;;;;;3.42;2.05;;;;;;;20.02;64.92;99029.34;4485161;31;20152;-71
2022/08/08 04:45:25;;;;;;;7.03;4.57;;;;;;;20.08;65.12;99032.25;4485194;31;20141;-71
2022/08/08 04:47:53;;;;;;;8.02;4.87;;;;;;;20.08;65.48;99035.72;4484422;32;20529;-71
2022/08/08 04:50:20;;;;;;;2.50;2.30;;;;;;;20.08;65.65;99032.25;4483935;31;20505;-71
2022/08/08 04:52:55;;;;;;;3.03;2.30;;;;;;;20.13;65.62;99035.16;4483656;31;20096;-71
2022/08/08 04:55:25;;;;;;;4.07;2.33;;;;;;;20.23;65.66;99037.47;4469322;32;20084;-71
2022/08/08 04:58:04;;;;;;;3.42;2.42;;;;;;;20.28;65.35;99030.56;4470787;32;20189;-71
2022/08/08 05:00:37;;;;;;;2.92;2.45;;;;;;;20.32;65.53;99037.16;4483057;31;20118;-71
2022/08/08 05:03:05;;;;;;;4.62;2.42;;;;;;;20.33;65.87;99038.81;4481687;31;20100;-71
2022/08/08 05:05:38;;;;;;;;;;;;;;;20.45;65.55;99041.72;4478911;32;20100;-71
2022/08/08 05:08:12;;;;;;;3.12;2.30;;;;;;;20.49;65.87;99050.16;4466246;32;20019;-71
2022/08/08 05:10:39;;;;;;;3.72;2.65;;;;;;;20.52;66.65;99053.25;4473277;32;20112;-71
2022/08/08 05:13:07;;;;;;;5.78;3.15;;;;;;;20.48;67.18;99045.84;4475747;32;20590;-71
2022/08/08 05:15:44;;;;;;;3.00;2.70;;;;;;;20.44;67.53;99040.09;4478684;32;20115;-71
2022/08/08 05:18:32;;;;;;;3.45;2.80;;;;;;;20.39;67.87;99042.50;4476618;32;20579;-71
2022/08/08 05:20:59;;;;;;;4.25;2.60;;;;;;;20.53;67.75;99046.06;4481552;31;20116;-71
2022/08/08 05:23:32;;;;;;;3.28;2.95;;;;;;;20.61;67.76;99040.59;4476049;31;20899;-71
2022/08/08 05:26:12;;;;;;;3.53;2.60;;;;;;;20.53;68.06;99046.06;4479146;32;20119;-71
2022/08/08 05:28:40;;;;;;;6.57;2.55;;;;;;;20.58;67.87;99050.84;4474277;31;20084;-71
2022/08/08 05:31:23;;;;;;;3.97;3.00;;;;;;;20.69;67.55;99053.78;4479017;32;20093;-71
2022/08/08 05:34:24;;;;;;;3.20;2.90;;;;;;;20.63;68.99;99059.03;4477659;31;20100;-71
2022/08/08 05:36:53;;;;;;;4.87;3.22;;;;;;;20.71;69.58;99061.56;4482822;31;20553;-71
2022/08/08 05:39:24;;;;;;;6.05;3.20;;;;;;;20.60;70.02;99059.44;4480974;32;20111;-71
2022/08/08 05:41:57;;;;;;;9.88;3.03;;;;;;;20.60;70.56;99060.25;4481535;32;20160;-71
2022/08/08 05:44:28;;;;;;;7.72;3.42;;;;;;;20.74;70.32;99056.69;4472783;32;20097;-71
2022/08/08 05:46:58;;;;;;;8.38;3.03;;;;;;;20.92;69.73;99047.34;4476333;31;20105;-71
2022/08/08 05:49:29;;;;;;;5.68;2.87;;;;;;;21.04;69.06;99051.09;4479726;32;20646;-71
2022/08/08 05:51:57;;;;;;;4.47;3.17;;;;;;;21.12;68.64;99058.13;4481829;31;20092;-71
2022/08/08 05:54:26;;;;;;;4.03;3.28;;;;;;;21.48;67.32;99062.31;4479780;31;20084;-71
2022/08/08 05:57:15;;;;;;;3.92;3.50;;;;;;;21.62;65.81;99052.56;4481101;32;20118;-71
2022/08/08 06:00:10;;;;;;;3.50;2.70;;;;;;;21.66;64.19;99044.97;4484767;32;20103;-71
2022/08/08 06:03:12;;;;;;;4.97;2.72;;;;;;;21.90;63.32;99038.25;4483884;32;20095;-71
2022/08/08 06:05:57;;;;;;;3.37;2.72;;;;;;;21.89;62.64;99034.75;4478972;31;20101;-71
2022/08/08 06:08:30;;;;;;;3.55;2.58;;;;;;;22.20;60.49;99040.50;4473145;32;20156;-71
2022/08/08 06:11:02;;;;;;;3.72;2.00;;;;;;;22.46;59.46;99051.19;4478056;32;20141;-71
2022/08/08 06:13:31;;;;;;;3.50;2.42;;;;;;;22.64;56.67;99065.75;4478564;31;20104;-71
2022/08/08 06:16:03;;;;;;;6.32;2.40;;;;;;;22.75;57.02;99062.41;4484258;31;20097;-72
2022/08/08 06:18:35;;;;;;;3.10;2.08;;;;;;;22.69;56.59;99063.25;4476163;32;20114;-71
2022/08/08 06:21:03;;;;;;;2.22;1.70;;;;;;;22.59;55.64;99061.03;4479981;32;20103;-71
2022/08/08 06:23:51;;;;;;;6.97;1.77;;;;;;;22.55;54.84;99059.00;4476679;31;20200;-71
2022/08/08 06:26:37;;;;;;;3.58;1.60;;;;;;;22.47;53.71;99060.03;4483378;32;20549;-72
2022/08/08 06:29:15;;;;;;;1.37;1.23;;;;;;;22.54;53.88;99060.81;4483988;32;20088;-72
2022/08/08 06:32:03;;;;;;;1.65;1.52;;;;;;;22.42;52.37;99057.13;4476272;32;20141;-72
2022/08/08 06:34:46;;;;;;;3.17;1.27;;;;;;;22.19;54.57;99058.34;4479037;32;20172;-72
2022/08/08 06:37:37;;;;;;;2.50;1.55;;;;;;;22.28;57.68;99065.13;4483058;32;20080;-72
2022/08/08 06:40:10;;;;;;;2.42;1.58;;;;;;;22.35;55.66;99072.34;4481018;32;20076;-72
2022/08/08 06:42:50;;;;;;;3.28;1.50;;;;;;;22.43;57.35;99075.62;4479102;32;20446;-72
2022/08/08 06:45:22;;;;;;;2.20;1.65;;;;;;;22.38;56.87;99078.09;4482861;31;20118;-72
2022/08/08 06:47:50;;;;;;;2.45;1.55;;;;;;;22.40;55.57;99075.22;4474219;31;20152;-72
2022/08/08 06:50:27;;;;;;;1.95;1.58;;;;;;;22.39;54.87;99073.56;4478738;32;20170;-72
2022/08/08 06:53:03;;;;;;;4.80;1.80;;;;;;;22.60;55.64;99075.19;4477070;32;20136;-72
2022/08/08 06:55:45;;;;;;;7.20;2.67;;;;;;;22.61;56.92;99082.19;4474111;32;20123;-72
2022/08/08 06:58:13;;;;;;;3.37;2.50;;;;;;;22.47;59.31;99078.72;4476117;32;20162;-72
2022/08/08 07:00:48;;;;;;;7.43;2.80;;;;;;;22.53;59.90;99072.56;4477321;32;20089;-72
2022/08/08 07:03:28;;;;;;;3.72;2.53;;;;;;;22.60;59.81;99072.53;4475487;32;20092;-72
2022/08/08 07:06:23;;;;;;;3.35;2.67;;;;;;;22.75;59.65;99072.28;4481841;31;20595;-72
2022/08/08 07:08:58;;;;;;;4.60;2.17;;;;;;;23.07;59.18;99059.84;4469239;31;20696;-72
2022/08/08 07:11:29;;;;;;;3.20;2.12;;;;;;;22.93;57.57;99063.63;4476995;32;20119;-72
2022/08/08 07:14:20;;;;;;;2.90;1.73;;;;;;;22.79;55.22;99063.66;4480211;31;20678;-72
2022/08/08 07:17:08;;;;;;;3.78;1.77;;;;;;;23.21;52.46;99060.69;4476771;32;20166;-71
2022/08/08 07:19:54;;;;;;;1.62;1.20;;;;;;;23.45;48.81;99064.47;4480125;32;20149;-72
2022/08/08 07:23:01;;;;;;;1.98;1.27;;;;;;;23.83;47.07;99077.00;4479752;31;20088;-72
2022/08/08 07:25:33;;;;;;;2.60;1.25;;;;;;;24.03;45.45;99074.22;4422551;32;20147;-72
2022/08/08 07:28:10;;;;;;;1.65;1.33;;;;;;;24.05;45.11;99082.03;4420397;32;20137;-72
2022/08/08 07:30:45;;;;;;;1.95;1.20;;;;;;;24.43;45.06;99075.75;4417957;32;20101;-72
2022/08/08 07:33:14;;;;;;;2.15;1.30;;;;;;;24.92;43.84;99087.44;4417482;32;20106;-72
2022/08/08 07:35:46;;;;;;;2.92;2.12;;;;;;;25.15;42.76;99085.97;4416187;32;20131;-72
2022/08/08 07:38:18;;;;;;;4.70;2.40;;;;;;;24.99;49.29;99084.69;4418318;32;20197;-72
2022/08/08 07:40:57;;;;;;;5.93;2.83;;;;;;;24.55;52.27;99086.56;4405813;32;20126;-71
2022/08/08 07:43:28;;;;;;;5.97;2.50;;;;;;;24.50;53.84;99095.25;4418542;32;20550;-71
2022/08/08 07:46:05;;;;;;;6.20;2.55;;;;;;;24.55;53.55;99089.22;4415582;32;20136;-71
2022/08/08 07:48:53;;;;;;;6.62;2.45;;;;;;;24.44;53.80;99086.22;4419157;32;20133;-71
2022/08/08 07:51:21;;;;;;;6.72;2.62;;;;;;;24.76;52.26;99094.19;4411622;32;20127;-71
2022/08/08 07:54:09;;;;;;;5.35;2.15;;;;;;;24.95;51.61;99097.72;4416192;32;20089;-71
2022/08/08 07:57:06;;;;;;;4.75;2.10;;;;;;;25.46;49.23;99100.25;4419773;32;20093;-71
2022/08/08 07:59:51;;;;;;;4.37;2.12;;;;;;;25.88;48.34;99099.47;4417157;32;20148;-71
2022/08/08 08:02:22;;;;;;;3.35;2.00;;;;;;;26.16;44.07;99102.37;4461154;32;20933;-71
2022/08/08 08:05:19;;;;;;;5.82;2.00;;;;;;;26.28;43.18;99104.25;4475894;31;20780;-72
2022/08/08 08:07:53;;;;;;;1.92;1.70;;;;;;;26.98;42.60;99102.63;4478484;32;20088;-72
2022/08/08 08:10:23;;;;;;;5.62;2.25;;;;;;;27.14;42.79;99101.09;4482833;32;20104;-73
2022/08/08 08:13:19;;;;;;;5.10;1.87;;;;;;;26.93;42.42;99103.34;4482236;31;20160;-73
2022/08/08 08:16:02;;;;;;;4.82;1.70;;;;;;;27.54;41.76;99105.66;4477065;32;20096;-71
2022/08/08 08:18:33;;;;;;;4.15;1.95;;;;;;;27.67;40.85;99102.69;4468635;31;20097;-71
2022/08/08 08:21:19;;;;;;;5.03;1.90;;;;;;;27.24;41.33;99110.19;4481831;32;20167;-71
2022/08/08 08:24:06;;;;;;;3.78;1.85;;;;;;;27.55;41.41;99102.72;4477920;32;20428;-71
2022/08/08 08:26:37;;;;;;;2.97;1.87;;;;;;;27.18;42.08;99104.94;4479030;32;20115;-71
2022/08/08 08:29:05;;;;;;;3.65;1.80;;;;;;;27.03;42.01;99108.94;4475746;31;20088;-71
2022/08/08 08:31:34;;;;;;;3.15;1.90;;;;;;;27.25;43.07;99109.13;4476067;32;20571;-71
2022/08/08 08:34:08;;;;;;;3.05;2.08;;;;;;;27.40;42.37;99114.03;4478785;31;20119;-71
2022/08/08 08:36:37;;;;;;;3.47;1.90;;;;;;;27.44;42.58;99112.47;4478030;32;20096;-71
2022/08/08 08:39:04;;;;;;;5.90;1.98;;;;;;;27.33;42.61;99120.59;4471047;31;20550;-71
2022/08/08 08:41:44;;;;;;;6.03;3.12;;;;;;;27.46;42.07;99122.19;4481286;32;20158;-71
2022/08/08 08:44:15;;;;;;;4.93;2.20;;;;;;;27.29;42.23;99128.28;4476057;31;20156;-71
2022/08/08 08:46:46;;;;;;;4.25;2.40;;;;;;;27.31;42.23;99131.56;4479151;32;20131;-71
2022/08/08 08:49:25;;;;;;;2.95;2.40;;;;;;;27.22;42.73;99130.28;4482041;31;20115;-71
2022/08/08 08:52:02;;;;;;;4.22;2.70;;;;;;;27.21;42.89;99131.38;4475100;32;20096;-71
2022/08/08 08:54:33;;;;;;;5.05;2.30;;;;;;;26.86;43.51;99126.84;4476807;31;20104;-71
2022/08/08 08:57:02;;;;;;;2.55;2.10;;;;;;;26.82;43.67;99131.06;4478972;32;20521;-71
2022/08/08 08:59:43;;;;;;;5.80;2.37;;;;;;;26.62;44.26;99132.19;4482895;31;20088;-71
2022/08/08 09:02:33;;;;;;;4.37;2.05;;;;;;;26.32;45.10;99129.59;4480514;32;20100;-71
2022/08/08 09:05:03;;;;;;;3.53;2.45;;;;;;;26.15;45.95;99138.31;4479993;32;20135;-71
2022/08/08 09:07:33;;;;;;;8.52;2.42;;;;;;;25.85;46.88;99132.97;4480642;31;20564;-71
2022/08/08 09:10:21;;;;;;;3.20;2.17;;;;;;;25.65;47.42;99135.91;4479606;31;20131;-71
2022/08/08 09:12:54;;;;;;;5.40;2.17;;;;;;;25.41;47.82;99143.03;4478107;32;20092;-71
2022/08/08 09:15:22;;;;;;;5.65;2.33;;;;;;;25.36;48.25;99140.19;4481341;31;20157;-71
2022/08/08 09:18:09;;;;;;;6.45;2.58;;;;;;;25.19;48.67;99146.13;4479237;32;80248;-71
2022/08/08 09:20:40;;;;;;;4.47;2.28;;;;;;;25.08;49.05;99149.56;4472848;31;20096;-71
2022/08/08 09:23:29;;;;;;;2.58;2.35;;;;;;;25.13;48.75;99141.66;4476064;32;20152;-72
2022/08/08 09:26:20;;;;;;;5.50;2.65;;;;;;;25.18;48.95;99141.81;4474163;32;20196;-72
2022/08/08 09:28:48;;;;;;;10.90;2.65;;;;;;;25.67;48.05;99136.50;4473218;32;20105;-72
2022/08/08 09:32:02;;;;;;;2.45;2.05;;;;;;;25.80;47.84;99141.69;4475101;32;20534;-71
2022/08/08 09:34:32;;;;;;;2.72;2.20;;;;;;;25.64;48.05;99135.06;4473608;32;20151;-72
2022/08/08 09:37:03;;;;;;;3.90;2.20;;;;;;;25.95;47.55;99137.75;4479871;32;20583;-72
2022/08/08 09:40:06;;;;;;;3.08;2.45;;;;;;;26.13;47.23;99135.06;4474900;32;20100;-72
2022/08/08 09:42:43;;;;;;;3.67;2.00;;;;;;;26.58;45.93;99130.22;4483608;31;20093;-72
2022/08/08 09:45:21;;;;;;;3.80;2.40;;;;;;;26.50;45.43;99128.69;4476892;31;20100;-71
2022/08/08 09:48:09;;;;;;;2.28;2.03;;;;;;;26.17;46.23;99120.09;4476470;32;20620;-72
2022/08/08 09:50:50;;;;;;;3.92;2.25;;;;;;;26.30;46.60;99116.41;4482781;31;20114;-74
2022/08/08 09:53:23;;;;;;;4.00;2.55;;;;;;;26.28;46.83;99110.44;4482351;32;20161;-74
2022/08/08 09:56:11;;;;;;;3.62;2.40;;;;;;;26.17;47.47;99108.56;4481912;32;20104;-74
2022/08/08 09:59:04;;;;;;;5.65;2.70;;;;;;;26.09;48.27;99106.22;4482572;31;20096;-74
2022/08/08 10:01:52;;;;;;;3.05;2.75;;;;;;;26.00;48.57;99111.91;4472755;32;20096;-74
2022/08/08 10:04:39;;;;;;;4.57;2.58;;;;;;;25.82;49.32;99106.56;4483546;31;20088;-74
2022/08/08 10:07:14;;;;;;;4.90;3.25;;;;;;;25.85;49.04;99108.81;4472514;32;20100;-74
2022/08/08 10:09:48;;;;;;;8.48;3.03;;;;;;;25.93;48.64;99108.47;4469185;32;20588;-74
2022/08/08 10:12:32;;;;;;;2.97;2.37;;;;;;;26.05;48.70;99119.25;4475544;32;20122;-74
2022/08/08 10:15:20;;;;;;;3.03;2.33;;;;;;;26.20;48.10;99119.66;4474983;31;20089;-74
2022/08/08 10:17:48;;;;;;;5.10;2.83;;;;;;;26.11;48.53;99133.66;4483271;31;20154;-75
2022/08/08 10:20:44;;;;;;;3.62;2.47;;;;;;;26.12;48.08;99140.66;4479681;32;20085;-74
2022/08/08 10:23:47;;;;;;;5.93;2.85;;;;;;;25.94;48.75;99131.59;4476797;32;20218;-72
2022/08/08 10:26:51;;;;;;;5.40;2.85;;;;;;;25.72;49.18;99122.41;4471374;31;20100;-73
2022/08/08 10:29:35;;;;;;;7.70;2.78;;;;;;;25.69;49.39;99120.97;4479890;32;20130;-74
2022/08/08 10:32:36;;;;;;;4.78;3.22;;;;;;;25.54;49.81;99115.22;4477406;32;20529;-73
2022/08/08 10:35:14;;;;;;;7.65;2.75;;;;;;;25.24;50.36;99111.41;4477804;31;20167;-72
2022/08/08 10:38:04;;;;;;;8.13;3.05;;;;;;;24.99;51.43;99111.50;4481423;32;20104;-74
2022/08/08 10:40:36;;;;;;;5.45;3.10;;;;;;;24.76;52.12;99104.91;4483326;32;20096;-72
2022/08/08 10:43:05;;;;;;;3.40;2.60;;;;;;;24.55;52.77;99106.12;4485417;31;20088;-73
2022/08/08 10:45:45;;;;;;;4.35;3.17;;;;;;;24.83;52.43;99120.94;4483507;32;20097;-73
2022/08/08 10:48:36;;;;;;;4.28;2.97;;;;;;;24.69;53.73;99130.13;4480023;32;20331;-73
2022/08/08 10:51:28;;;;;;;9.05;3.97;;;;;;;24.39;54.80;99136.12;4470303;31;20442;-73
2022/08/08 10:54:20;;;;;;;6.60;3.60;;;;;;;24.42;55.22;99133.00;4469893;32;20112;-73
2022/08/08 10:56:58;;;;;;;6.53;3.05;;;;;;;24.51;55.96;99136.25;4470112;32;20444;-72
2022/08/08 10:59:26;;;;;;;7.97;3.92;;;;;;;24.67;56.28;99121.50;4479154;32;20116;-72
2022/08/08 11:01:58;;;;;;;10.48;4.18;;;;;;;24.44;57.69;99133.63;4481543;31;20092;-73
2022/08/08 11:04:25;;;;;;;8.30;4.28;;;;;;;24.19;58.86;99130.94;4484318;32;20104;-73
2022/08/08 11:07:05;;;;;;;11.40;3.92;;;;;;;24.25;59.81;99128.22;4483695;31;20160;-72
2022/08/08 11:09:33;;;;;;;8.35;4.20;;;;;;;24.30;59.88;99126.72;4484237;32;20243;-72
2022/08/08 11:12:01;;;;;;;6.82;3.95;;;;;;;24.50;59.67;99122.03;4484631;32;20115;-72
2022/08/08 11:14:55;;;;;;;12.55;3.95;;;;;;;24.34;59.82;99119.91;4485793;31;20080;-72
2022/08/08 11:17:26;;;;;;;8.52;3.87;;;;;;;24.25;60.73;99114.84;4484704;31;20088;-72
2022/08/08 11:20:16;;;;;;;5.62;3.45;;;;;;;24.36;61.05;99112.47;4478524;32;20716;-72
2022/08/08 11:22:50;;;;;;;4.85;3.97;;;;;;;24.68;60.65;99112.41;4484474;32;20089;-72
2022/08/08 11:25:24;;;;;;;8.02;4.05;;;;;;;24.09;61.82;99110.00;4483689;32;20184;-72
2022/08/08 11:28:12;;;;;;;6.63;3.97;;;;;;;23.98;63.18;99113.34;4482129;32;20366;-72
2022/08/08 11:30:40;;;;;;;7.45;3.67;;;;;;;24.33;61.61;99110.22;4485058;31;20096;-72
2022/08/08 11:33:23;;;;;;;5.10;3.75;;;;;;;24.75;59.43;99105.12;4484163;32;20145;-72
2022/08/08 11:36:13;;;;;;;6.10;3.67;;;;;;;24.42;59.92;99109.75;4484470;32;20532;-71
2022/08/08 11:38:41;;;;;;;5.28;4.10;;;;;;;23.98;62.60;99114.19;4484357;32;20090;-72
2022/08/08 11:41:23;;;;;;;4.32;3.92;;;;;;;23.96;64.07;99113.56;4485553;31;20084;-70
2022/08/08 11:43:54;;;;;;;7.03;4.28;;;;;;;23.36;66.46;99130.75;4485485;31;20152;-72
2022/08/08 11:46:26;;;;;;;6.93;4.68;;;;;;;23.27;67.89;99136.50;4485618;31;20133;-72
2022/08/08 11:48:56;;;;;;;7.28;4.55;;;;;;;23.07;69.25;99140.03;4480149;31;20434;-72
2022/08/08 11:51:25;;;;;;;8.60;4.30;;;;;;;22.97;70.64;99127.13;4485308;31;20071;-71
2022/08/08 11:54:01;;;;;;;7.85;4.78;;;;;;;22.83;72.00;99130.81;4484352;32;20166;-72
2022/08/08 11:56:32;;;;;;;8.68;5.00;;;;;;;23.12;71.19;99131.41;4485308;31;20108;-72
2022/08/08 11:59:08;;;;;;;6.68;4.12;;;;;;;23.36;69.90;99128.06;4485468;31;20455;-72
2022/08/08 12:01:36;;;;;;;8.07;4.45;;;;;;;23.42;68.43;99125.56;4483961;32;20085;-73
2022/08/08 12:04:06;;;;;;;5.97;4.53;;;;;;;22.98;69.05;99131.44;4485082;32;20105;-72
2022/08/08 12:06:33;;;;;;;6.50;4.28;;;;;;;22.94;69.02;99122.19;4485012;31;20088;-73
2022/08/08 12:09:06;;;;;;;4.62;4.22;;;;;;;23.64;67.02;99123.41;4484226;32;20162;-73
2022/08/08 12:11:40;;;;;;;5.07;4.45;;;;;;;23.56;67.13;99124.50;4485172;31;20084;-72
2022/08/08 12:14:07;;;;;;;;;;;;;;;23.11;68.98;99129.78;4485755;31;20077;-73
2022/08/08 12:16:48;;;;;;;7.40;4.70;;;;;;;23.38;68.24;99114.47;4485284;31;19984;-73
2022/08/08 12:19:19;;;;;;;6.93;3.78;;;;;;;23.22;68.81;99110.41;4485315;31;20118;-73
2022/08/08 12:22:07;;;;;;;4.65;4.10;;;;;;;23.23;68.35;99125.44;4485172;31;20111;-73
2022/08/08 12:24:44;;;;;;;6.87;4.20;;;;;;;23.04;68.52;99119.91;4485416;31;20528;-73
2022/08/08 12:27:20;;;;;;;3.92;3.55;;;;;;;22.66;69.65;99117.09;4485098;31;20165;-73
2022/08/08 12:29:58;;;;;;;4.75;3.83;;;;;;;23.26;67.43;99124.19;4485375;31;20080;-72
2022/08/08 12:32:28;;;;;;;3.60;3.30;;;;;;;23.08;67.91;99136.34;4485041;31;20080;-73
2022/08/08 12:34:57;;;;;;;5.45;4.60;;;;;;;23.52;66.32;99137.44;4483796;32;20188;-74
2022/08/08 12:37:46;;;;;;;4.70;3.55;;;;;;;23.38;67.05;99133.19;4485261;31;20138;-74
2022/08/08 12:40:44;;;;;;;4.62;4.22;;;;;;;23.17;67.99;99137.78;4485086;31;20117;-74
2022/08/08 12:43:33;;;;;;;6.75;4.50;;;;;;;22.96;69.06;99130.81;4483199;32;20080;-73
2022/08/08 12:46:21;;;;;;;4.90;4.20;;;;;;;23.21;67.93;99139.00;4485165;31;20080;-72
2022/08/08 12:49:00;;;;;;;5.32;3.47;;;;;;;23.30;68.03;99141.44;4485084;31;20157;-74